SBGRWARR

Guest
Details From SBGR - Sao Paulo - Guarulhos
To WARR - Surabaya Juanda
Flight Number -
Tags Generated
Created
Modified
Stats Distance 8,595 nm / 15,918 km
Max Altitude 0 ft / 0 m
Waypoints 3
Social Downloads 0
Likes 0
Share VATSIM

Download

Looking for another format? Having issues loading an existing format? Contact us
Advertisement - Login to hide

Notes

Generated

Route

SBGR R1690 WARR

ID Type Via Altitude Latitude Longitude Leg Dist Tot Dist Heading (true) Name
O SBGR APT - 0 ft / 0 m -23.43891˚ -46.48745˚ - 0 nm - -
R1690 FIX - 0 ft / 0 m -7.37765˚ 112.77345˚ 8595 nm 8595 nm 144° / 33° -
O WARR APT - 0 ft / 0 m -7.37765˚ 112.77345˚ 0 nm 8595 nm 0° / 180° -

Altitude Profile

Advertisement - Login to hide

Weather


0- 5 10 15 20 25 30 35+ Temperature / ° C

Clouds and Precipitation
Forecast for 2017-12-13 18:00 UTC. Updated 2 hours ago

Ground ~20,000 ft ~40,000 ft Winds

SBGR

Details ICAO SBGR (GRU)
Name Sao Paulo - Guarulhos
Region Brazil
Timezone America/Sao_Paulo (UTC-2.0)
Stats Elevation 2,459 ft / 750 m (AMSL)
Location -23.432333° -46.469675°
Runways 2
Magnetic Variation 21.413° W

METAR

SBGR 131500Z 09006KT 9999 BKN023 22/17 Q1020

Decode

TAF

TAF SBGR 130900Z 1312/1418 07007KT 9999 SCT012 TX28/1317Z TN16/1408Z BECMG 1313/1315 14005KT FEW040 BECMG 1316/1318 17008KT BKN040 BECMG 1321/1323 12004KT CAVOK BECMG 1400/1402 06007KT PROB30 1407/1411 0500 FG OVC001 BECMG 1412/1414 13005KT SCT025 BECMG 1415/1417 SCT030 RMK PGL

Decode

Departure Runways

ID Width Length Bearing (true) Bearing (mag) Surface Threshold Offset Overrun Length
09L 148 ft / 45 m 12,676 ft / 3,864 m 73.61° 95.02° Asphalt 495 ft / 151 m 0 ft / 0 m
09R 148 ft / 45 m 9,950 ft / 3,033 m 73.60° 95.01° Asphalt 0 ft / 0 m 197 ft / 60 m
27L 148 ft / 45 m 9,950 ft / 3,033 m 253.59° 275.00° Asphalt 0 ft / 0 m 197 ft / 60 m
27R 148 ft / 45 m 12,676 ft / 3,864 m 253.60° 275.01° Asphalt 197 ft / 60 m 0 ft / 0 m

WARR

Details ICAO WARR (SUB)
Name Surabaya Juanda
Region Indonesia
Timezone Asia/Jakarta (UTC+7.0)
Stats Elevation 9 ft / 3 m (AMSL)
Location -7.379832° 112.786858°
Runways 1
Magnetic Variation 0.953° E

METAR

WARR 131400Z 28006KT 8000 SCT020 26/24 Q1010 NOSIG

Decode

TAF

Not found

Destination Runways

ID Width Length Bearing (true) Bearing (mag) Surface Threshold Offset Overrun Length
10 148 ft / 45 m 9,836 ft / 2,998 m 99.32° 98.37° Asphalt 0 ft / 0 m 328 ft / 100 m
28 148 ft / 45 m 9,836 ft / 2,998 m 279.32° 278.37° Asphalt 0 ft / 0 m 328 ft / 100 m

Approach Navaids

Runway Type Ident Frequency Range Bearing (true) Bearing (mag) Slope Elevation
10 Localiser ISBY 110.10 MHz 18 nm / 33 km 99.30° 98.34° - 8 ft / 2 m (AMSL)
10 Glidescope ISBY 110.10 MHz 10 nm / 19 km 99.32° 98.36° 3.00° 9 ft / 3 m (AMSL)
10 DME ISBY 110.10 MHz 18 nm / 33 km - - - 8 ft / 2 m (AMSL)